AFR7310 LFPG-LFMN
Flight info
| Callsign | AFR7310 |
|---|---|
| Flight time | N/A |
| Altitude | 37000 |
| Route | LATRA DCT LAMUT DCT UTUVA DCT LERGA DCT LIQID DCT LATAM DCT TUNUR DCT NISAR |
| Aircraft | A319/M-SDE3FGHIRWY/LB1 |
Departure
| Time | 2026-05-04 17:28 |
|---|---|
| Airport | Charles de Gaulle International Airport (LFPG) |
Arrival
| Time | N/A |
|---|---|
| Airport | Nice-Côte d'Azur Airport (LFMN) |
| Time | Latitude | Longitude | Altitude | Speed | Heading |
|---|---|---|---|---|---|
| 2026-05-04 17:00 | 49.00171 | 2.56202 | 347 ft | 0 kts | 352° |
| 2026-05-04 17:12 | 49.00169 | 2.56203 | 347 ft | 0 kts | 351° |
| 2026-05-04 17:14 | 49.00153 | 2.56206 | 346 ft | 2 kts | 351° |
| 2026-05-04 17:15 | 49.00138 | 2.56210 | 345 ft | 2 kts | 352° |
| 2026-05-04 17:15 | 49.00111 | 2.56216 | 344 ft | 0 kts | 352° |
| 2026-05-04 17:16 | 49.00092 | 2.56239 | 343 ft | 1 kts | 278° |
| 2026-05-04 17:16 | 49.00093 | 2.56255 | 343 ft | 0 kts | 265° |
| 2026-05-04 17:19 | 49.00087 | 2.56133 | 340 ft | 14 kts | 265° |
| 2026-05-04 17:19 | 49.00072 | 2.55687 | 328 ft | 17 kts | 274° |
| 2026-05-04 17:20 | 49.00290 | 2.55540 | 331 ft | 21 kts | 343° |
| 2026-05-04 17:20 | 49.00623 | 2.55398 | 336 ft | 27 kts | 343° |
| 2026-05-04 17:20 | 49.00810 | 2.55312 | 339 ft | 29 kts | 346° |
| 2026-05-04 17:21 | 49.01203 | 2.55137 | 354 ft | 26 kts | 343° |
| 2026-05-04 17:21 | 49.01366 | 2.54937 | 360 ft | 16 kts | 339° |
| 2026-05-04 17:22 | 49.01492 | 2.54903 | 363 ft | 20 kts | 358° |
| 2026-05-04 17:22 | 49.01641 | 2.54880 | 366 ft | 22 kts | 355° |
| 2026-05-04 17:23 | 49.02022 | 2.54772 | 370 ft | 15 kts | 256° |
| 2026-05-04 17:23 | 49.02011 | 2.54584 | 370 ft | 20 kts | 266° |
| 2026-05-04 17:23 | 49.01920 | 2.54106 | 368 ft | 28 kts | 225° |
| 2026-05-04 17:24 | 49.01877 | 2.53801 | 364 ft | 31 kts | 264° |
| 2026-05-04 17:24 | 49.01826 | 2.52725 | 369 ft | 31 kts | 266° |
| 2026-05-04 17:25 | 49.01812 | 2.52405 | 372 ft | 29 kts | 269° |
| 2026-05-04 17:25 | 49.01866 | 2.51885 | 369 ft | 24 kts | 265° |
| 2026-05-04 17:26 | 49.01883 | 2.51444 | 364 ft | 12 kts | 328° |
| 2026-05-04 17:26 | 49.02044 | 2.51621 | 369 ft | 10 kts | 56° |
| 2026-05-04 17:27 | 49.02106 | 2.52043 | 373 ft | 62 kts | 86° |
| 2026-05-04 17:27 | 49.02243 | 2.54763 | 609 ft | 170 kts | 86° |
| 2026-05-04 17:28 | 49.02425 | 2.58243 | 2242 ft | 167 kts | 86° |
| 2026-05-04 17:29 | 49.02756 | 2.64312 | 3706 ft | 223 kts | 85° |
| 2026-05-04 17:29 | 49.03195 | 2.72263 | 5580 ft | 274 kts | 85° |
| 2026-05-04 17:30 | 49.03641 | 2.81027 | 8235 ft | 286 kts | 84° |
| 2026-05-04 17:31 | 49.03960 | 2.87224 | 9780 ft | 301 kts | 83° |
| 2026-05-04 17:31 | 49.03116 | 2.97126 | 11239 ft | 349 kts | 128° |
| 2026-05-04 17:32 | 48.99014 | 3.00956 | 12191 ft | 355 kts | 178° |
| 2026-05-04 17:33 | 48.91768 | 3.00447 | 14446 ft | 348 kts | 205° |
| 2026-05-04 17:33 | 48.89712 | 2.98671 | 15043 ft | 343 kts | 225° |
| 2026-05-04 17:34 | 48.85538 | 2.89853 | 16933 ft | 349 kts | 240° |
| 2026-05-04 17:34 | 48.84217 | 2.86779 | 17540 ft | 353 kts | 240° |
| 2026-05-04 17:35 | 48.80111 | 2.77333 | 19317 ft | 361 kts | 240° |
| 2026-05-04 17:35 | 48.77319 | 2.70957 | 20437 ft | 366 kts | 240° |
| 2026-05-04 17:35 | 48.75894 | 2.67713 | 20978 ft | 368 kts | 240° |
| 2026-05-04 17:36 | 48.74486 | 2.64513 | 21497 ft | 371 kts | 240° |
| 2026-05-04 17:36 | 48.72928 | 2.61362 | 21988 ft | 377 kts | 233° |
| 2026-05-04 17:36 | 48.71047 | 2.58571 | 22467 ft | 384 kts | 225° |
| 2026-05-04 17:36 | 48.68884 | 2.56213 | 22933 ft | 391 kts | 218° |
| 2026-05-04 17:37 | 48.66540 | 2.54071 | 23408 ft | 394 kts | 216° |
| 2026-05-04 17:37 | 48.64172 | 2.51968 | 23857 ft | 396 kts | 216° |
| 2026-05-04 17:37 | 48.61807 | 2.49873 | 24291 ft | 399 kts | 216° |
| 2026-05-04 17:37 | 48.59411 | 2.47747 | 24717 ft | 401 kts | 216° |
| 2026-05-04 17:38 | 48.57024 | 2.45626 | 25130 ft | 403 kts | 216° |
| 2026-05-04 17:38 | 48.54605 | 2.43478 | 25535 ft | 405 kts | 216° |
| 2026-05-04 17:38 | 48.52103 | 2.41445 | 25914 ft | 413 kts | 210° |
| 2026-05-04 17:38 | 48.49344 | 2.40097 | 26275 ft | 424 kts | 199° |
| 2026-05-04 17:39 | 48.43382 | 2.39695 | 27014 ft | 441 kts | 184° |
| 2026-05-04 17:39 | 48.40298 | 2.39952 | 27385 ft | 443 kts | 184° |
| 2026-05-04 17:39 | 48.37212 | 2.40224 | 27761 ft | 445 kts | 184° |
| 2026-05-04 17:40 | 48.34132 | 2.40482 | 28118 ft | 446 kts | 184° |
| 2026-05-04 17:40 | 48.31057 | 2.40897 | 28443 ft | 452 kts | 180° |
| 2026-05-04 17:40 | 48.27934 | 2.41715 | 28753 ft | 459 kts | 175° |
| 2026-05-04 17:40 | 48.24856 | 2.42945 | 29044 ft | 466 kts | 169° |
| 2026-05-04 17:41 | 48.21762 | 2.44528 | 29382 ft | 469 kts | 167° |
| 2026-05-04 17:41 | 48.18724 | 2.46157 | 29812 ft | 467 kts | 167° |
| 2026-05-04 17:41 | 48.15693 | 2.47788 | 30253 ft | 465 kts | 167° |
| 2026-05-04 17:41 | 48.12644 | 2.49415 | 30662 ft | 464 kts | 168° |
| 2026-05-04 17:42 | 48.09649 | 2.51002 | 31040 ft | 463 kts | 168° |
| 2026-05-04 17:42 | 48.06618 | 2.52582 | 31414 ft | 462 kts | 169° |
| 2026-05-04 17:42 | 48.03597 | 2.54094 | 31782 ft | 460 kts | 169° |
| 2026-05-04 17:42 | 48.00551 | 2.55595 | 32143 ft | 459 kts | 169° |
| 2026-05-04 17:43 | 47.97525 | 2.57080 | 32495 ft | 459 kts | 169° |
| 2026-05-04 17:43 | 47.94517 | 2.58554 | 32838 ft | 458 kts | 169° |
| 2026-05-04 17:43 | 47.91526 | 2.60019 | 33173 ft | 457 kts | 169° |
| 2026-05-04 17:43 | 47.88479 | 2.61510 | 33506 ft | 456 kts | 170° |
| 2026-05-04 17:44 | 47.85483 | 2.62973 | 33828 ft | 456 kts | 170° |
| 2026-05-04 17:44 | 47.82505 | 2.64425 | 34140 ft | 455 kts | 170° |
| 2026-05-04 17:44 | 47.79504 | 2.65887 | 34444 ft | 454 kts | 170° |
| 2026-05-04 17:44 | 47.76512 | 2.67344 | 34738 ft | 454 kts | 170° |
| 2026-05-04 17:45 | 47.73542 | 2.68790 | 35019 ft | 453 kts | 170° |
| 2026-05-04 17:45 | 47.70543 | 2.70249 | 35284 ft | 453 kts | 170° |
| 2026-05-04 17:45 | 47.67545 | 2.71705 | 35503 ft | 454 kts | 170° |
| 2026-05-04 17:45 | 47.64580 | 2.73143 | 35694 ft | 455 kts | 170° |
| 2026-05-04 17:46 | 47.61571 | 2.74602 | 35878 ft | 455 kts | 170° |
| 2026-05-04 17:46 | 47.58548 | 2.76066 | 36058 ft | 456 kts | 170° |
| 2026-05-04 17:46 | 47.55582 | 2.77502 | 36227 ft | 457 kts | 170° |
| 2026-05-04 17:46 | 47.52561 | 2.78962 | 36386 ft | 458 kts | 170° |
| 2026-05-04 17:47 | 47.49538 | 2.80421 | 36534 ft | 459 kts | 170° |
| 2026-05-04 17:47 | 47.46486 | 2.81893 | 36675 ft | 460 kts | 170° |
| 2026-05-04 17:47 | 47.43491 | 2.83336 | 36807 ft | 460 kts | 170° |
| 2026-05-04 17:47 | 47.40430 | 2.84808 | 36929 ft | 462 kts | 170° |
| 2026-05-04 17:48 | 47.34354 | 2.87725 | 36940 ft | 463 kts | 169° |
| 2026-05-04 17:48 | 47.28252 | 2.90647 | 36943 ft | 463 kts | 169° |
| 2026-05-04 17:49 | 47.22131 | 2.93568 | 36944 ft | 464 kts | 169° |
| 2026-05-04 17:49 | 47.16019 | 2.96477 | 36944 ft | 465 kts | 169° |
| 2026-05-04 17:50 | 47.09850 | 2.99368 | 36944 ft | 465 kts | 171° |
| 2026-05-04 17:50 | 47.03680 | 3.02000 | 36944 ft | 465 kts | 171° |
| 2026-05-04 17:51 | 46.97448 | 3.04622 | 36942 ft | 469 kts | 172° |
| 2026-05-04 17:51 | 46.91169 | 3.07267 | 36941 ft | 475 kts | 172° |
| 2026-05-04 17:52 | 46.84782 | 3.09950 | 36941 ft | 483 kts | 172° |
| 2026-05-04 17:52 | 46.78338 | 3.12653 | 36943 ft | 485 kts | 172° |
| 2026-05-04 17:53 | 46.71865 | 3.15373 | 36944 ft | 485 kts | 172° |
| 2026-05-04 17:53 | 46.65401 | 3.18082 | 36944 ft | 485 kts | 172° |
| 2026-05-04 17:54 | 46.58923 | 3.20789 | 36944 ft | 485 kts | 172° |
| 2026-05-04 17:54 | 46.52487 | 3.23471 | 36944 ft | 485 kts | 172° |
| 2026-05-04 17:55 | 46.46009 | 3.26164 | 36944 ft | 485 kts | 172° |
| 2026-05-04 17:55 | 46.39519 | 3.28856 | 36944 ft | 485 kts | 172° |
| 2026-05-04 17:56 | 46.33091 | 3.31515 | 36944 ft | 485 kts | 172° |
| 2026-05-04 17:56 | 46.26621 | 3.34185 | 36944 ft | 485 kts | 172° |
| 2026-05-04 17:57 | 46.20148 | 3.36850 | 36944 ft | 485 kts | 172° |
| 2026-05-04 17:57 | 46.13649 | 3.39518 | 36944 ft | 485 kts | 172° |
| 2026-05-04 17:58 | 46.07184 | 3.42167 | 36948 ft | 485 kts | 172° |
| 2026-05-04 17:58 | 46.00742 | 3.44800 | 36987 ft | 485 kts | 172° |
| 2026-05-04 17:59 | 45.94281 | 3.47434 | 37014 ft | 485 kts | 172° |
| 2026-05-04 18:00 | 45.84539 | 3.51388 | 37029 ft | 485 kts | 172° |
| 2026-05-04 18:00 | 45.78104 | 3.53990 | 37032 ft | 485 kts | 172° |
| 2026-05-04 18:01 | 45.71597 | 3.56618 | 37032 ft | 485 kts | 172° |
| 2026-05-04 18:01 | 45.65147 | 3.59219 | 37032 ft | 485 kts | 172° |
| 2026-05-04 18:02 | 45.55456 | 3.63115 | 37032 ft | 485 kts | 172° |
| 2026-05-04 18:02 | 45.48969 | 3.65718 | 37029 ft | 485 kts | 172° |
| 2026-05-04 18:03 | 45.42475 | 3.68342 | 37031 ft | 484 kts | 172° |
| 2026-05-04 18:03 | 45.36022 | 3.70920 | 37032 ft | 484 kts | 173° |
| 2026-05-04 18:04 | 45.29731 | 3.74452 | 37030 ft | 499 kts | 158° |
| 2026-05-04 18:04 | 45.24072 | 3.80303 | 37030 ft | 512 kts | 141° |
| 2026-05-04 18:05 | 45.21672 | 3.84004 | 37030 ft | 517 kts | 132° |
| 2026-05-04 18:05 | 45.17642 | 3.92499 | 37032 ft | 521 kts | 124° |
| 2026-05-04 18:06 | 45.11883 | 4.05476 | 37030 ft | 520 kts | 126° |
| 2026-05-04 18:06 | 45.07946 | 4.14060 | 37032 ft | 519 kts | 126° |
| 2026-05-04 18:07 | 45.03950 | 4.22479 | 37029 ft | 516 kts | 129° |